createdAt,value
2016-07-31T00:00:47.203Z,1010.36
2016-07-31T00:01:47.229Z,1010.33
2016-07-31T00:02:47.255Z,1010.32
2016-07-31T00:03:47.281Z,1010.32
2016-07-31T00:04:47.308Z,1010.31
2016-07-31T00:05:47.334Z,1010.28
2016-07-31T00:06:47.360Z,1010.29
2016-07-31T00:07:47.386Z,1010.24
2016-07-31T00:08:47.412Z,1010.24
2016-07-31T00:09:47.438Z,1010.24
2016-07-31T00:10:47.464Z,1010.24
2016-07-31T00:11:47.490Z,1010.23
2016-07-31T00:13:47.543Z,1010.2
2016-07-31T00:14:47.568Z,1010.2
2016-07-31T00:15:47.595Z,1010.23
2016-07-31T00:16:47.621Z,1010.2
2016-07-31T00:17:47.647Z,1010.17
2016-07-31T00:18:47.672Z,1010.23
2016-07-31T00:19:47.699Z,1010.17
2016-07-31T00:20:47.725Z,1010.18
2016-07-31T00:21:47.752Z,1010.18
2016-07-31T00:22:47.777Z,1010.21
2016-07-31T00:23:47.804Z,1010.23
2016-07-31T00:24:47.830Z,1010.21
2016-07-31T00:25:47.859Z,1010.2
2016-07-31T00:26:47.881Z,1010.25
2016-07-31T00:27:47.908Z,1010.23
2016-07-31T00:28:47.935Z,1010.22
2016-07-31T00:29:47.960Z,1010.23
2016-07-31T00:30:48.005Z,1010.28
2016-07-31T00:31:48.013Z,1010.29
2016-07-31T00:32:48.038Z,1010.25
2016-07-31T00:33:48.064Z,1010.27
2016-07-31T00:34:48.090Z,1010.25
2016-07-31T00:35:48.123Z,1010.28
2016-07-31T00:36:48.142Z,1010.26
2016-07-31T00:37:48.169Z,1010.28
2016-07-31T00:38:48.194Z,1010.34
2016-07-31T00:39:48.221Z,1010.34
2016-07-31T00:40:48.247Z,1010.33
2016-07-31T00:41:48.273Z,1010.32
2016-07-31T00:42:48.299Z,1010.31
2016-07-31T00:43:48.332Z,1010.32
2016-07-31T00:44:48.351Z,1010.34
2016-07-31T00:45:48.377Z,1010.36
2016-07-31T00:46:48.404Z,1010.37
2016-07-31T00:47:48.428Z,1010.38
2016-07-31T00:48:48.455Z,1010.37
2016-07-31T00:49:48.483Z,1010.39
2016-07-31T00:50:48.507Z,1010.35
2016-07-31T00:51:48.534Z,1010.36
2016-07-31T00:52:48.559Z,1010.37
2016-07-31T00:53:48.586Z,1010.31
2016-07-31T00:54:48.610Z,1010.38
2016-07-31T00:55:48.637Z,1010.32
2016-07-31T00:56:48.664Z,1010.31
2016-07-31T00:57:48.691Z,1010.31
2016-07-31T00:58:48.715Z,1010.3
2016-07-31T00:59:48.741Z,1010.33
2016-07-31T01:00:48.767Z,1010.34
2016-07-31T01:01:48.794Z,1010.34
2016-07-31T01:02:48.818Z,1010.36
2016-07-31T01:03:48.845Z,1010.36
2016-07-31T01:04:48.872Z,1010.38
2016-07-31T01:05:48.896Z,1010.38
2016-07-31T01:06:48.923Z,1010.42
2016-07-31T01:07:48.949Z,1010.41
2016-07-31T01:08:48.975Z,1010.47
2016-07-31T01:09:49.001Z,1010.45
2016-07-31T01:10:49.027Z,1010.46
2016-07-31T01:11:49.053Z,1010.47
2016-07-31T01:12:49.079Z,1010.48
2016-07-31T01:13:49.112Z,1010.51
2016-07-31T01:14:49.130Z,1010.49
2016-07-31T01:15:49.157Z,1010.51
2016-07-31T01:16:49.182Z,1010.52
2016-07-31T01:17:49.210Z,1010.53
2016-07-31T01:18:49.236Z,1010.55
2016-07-31T01:19:49.261Z,1010.55
2016-07-31T01:20:49.287Z,1010.55
2016-07-31T01:21:49.313Z,1010.5
2016-07-31T01:22:49.338Z,1010.53
2016-07-31T01:23:49.365Z,1010.51
2016-07-31T01:24:49.390Z,1010.5
2016-07-31T01:25:49.423Z,1010.53
2016-07-31T01:26:49.443Z,1010.48
2016-07-31T01:27:49.468Z,1010.47
2016-07-31T01:28:49.494Z,1010.49
2016-07-31T01:29:49.521Z,1010.49
2016-07-31T01:30:49.547Z,1010.45
2016-07-31T01:31:49.572Z,1010.46
2016-07-31T01:32:49.598Z,1010.45
2016-07-31T01:33:49.625Z,1010.48
2016-07-31T01:34:49.650Z,1010.44
2016-07-31T01:35:49.677Z,1010.46
2016-07-31T01:36:49.703Z,1010.46
2016-07-31T01:37:49.729Z,1010.47
2016-07-31T01:38:49.754Z,1010.44
2016-07-31T01:39:49.781Z,1010.45
2016-07-31T01:40:49.807Z,1010.49
2016-07-31T01:41:49.833Z,1010.48
2016-07-31T01:42:49.858Z,1010.48
2016-07-31T01:43:49.885Z,1010.49
2016-07-31T01:44:49.910Z,1010.49
2016-07-31T01:45:49.936Z,1010.51
2016-07-31T01:46:49.962Z,1010.49
2016-07-31T01:47:49.989Z,1010.5
2016-07-31T01:48:50.015Z,1010.51
2016-07-31T01:49:50.041Z,1010.48
2016-07-31T01:50:50.067Z,1010.49
2016-07-31T01:51:50.093Z,1010.48
2016-07-31T01:52:50.119Z,1010.49
2016-07-31T01:53:50.144Z,1010.54
2016-07-31T01:54:50.170Z,1010.55
2016-07-31T01:55:50.200Z,1010.56
2016-07-31T01:56:50.222Z,1010.56
2016-07-31T01:57:50.248Z,1010.54
2016-07-31T01:58:50.274Z,1010.55
2016-07-31T01:59:50.301Z,1010.57
2016-07-31T02:00:50.329Z,1010.57
2016-07-31T02:01:50.352Z,1010.56
2016-07-31T02:02:50.379Z,1010.57
2016-07-31T02:03:50.404Z,1010.54
2016-07-31T02:04:50.430Z,1010.56
2016-07-31T02:05:50.456Z,1010.54
2016-07-31T02:06:50.482Z,1010.56
2016-07-31T02:07:50.507Z,1010.54
2016-07-31T02:08:50.539Z,1010.51
2016-07-31T02:09:50.559Z,1010.53
2016-07-31T02:10:50.586Z,1010.52
2016-07-31T02:11:50.611Z,1010.5
2016-07-31T02:12:50.637Z,1010.48
2016-07-31T02:13:50.663Z,1010.44
2016-07-31T02:14:50.690Z,1010.52
2016-07-31T02:15:50.714Z,1010.52
2016-07-31T02:16:50.741Z,1010.54
2016-07-31T02:17:50.767Z,1010.53
2016-07-31T02:18:50.793Z,1010.53
2016-07-31T02:19:50.818Z,1010.51
2016-07-31T02:20:50.845Z,1010.5
2016-07-31T02:21:50.871Z,1010.52
2016-07-31T02:22:50.896Z,1010.48
2016-07-31T02:23:50.922Z,1010.49
2016-07-31T02:24:50.948Z,1010.52
2016-07-31T02:25:50.975Z,1010.48
2016-07-31T02:26:51.000Z,1010.49
2016-07-31T02:27:51.027Z,1010.5
2016-07-31T02:28:51.051Z,1010.45
2016-07-31T02:29:51.077Z,1010.42
2016-07-31T02:30:51.103Z,1010.43
2016-07-31T02:31:51.130Z,1010.41
2016-07-31T02:32:51.156Z,1010.37
2016-07-31T02:33:51.182Z,1010.38
2016-07-31T02:34:51.207Z,1010.4
2016-07-31T02:35:51.240Z,1010.38
2016-07-31T02:36:51.264Z,1010.38
2016-07-31T02:37:51.286Z,1010.34
2016-07-31T02:38:51.312Z,1010.35
2016-07-31T02:39:51.338Z,1010.38
2016-07-31T02:40:51.363Z,1010.39
2016-07-31T02:41:51.389Z,1010.39
2016-07-31T02:42:51.415Z,1010.34
2016-07-31T02:43:51.441Z,1010.37
2016-07-31T02:44:51.467Z,1010.33
2016-07-31T02:45:51.492Z,1010.31
2016-07-31T02:46:51.519Z,1010.27
2016-07-31T02:47:51.546Z,1010.22
2016-07-31T02:48:51.571Z,1010.26
2016-07-31T02:49:51.596Z,1010.23
2016-07-31T02:50:51.623Z,1010.2
2016-07-31T02:51:51.648Z,1010.2
2016-07-31T02:52:51.674Z,1010.21
2016-07-31T02:53:51.712Z,1010.19
2016-07-31T02:54:51.727Z,1010.18
2016-07-31T02:55:51.752Z,1010.2
2016-07-31T02:56:51.779Z,1010.14
2016-07-31T02:57:51.805Z,1010.13
2016-07-31T02:58:51.830Z,1010.1
2016-07-31T02:59:51.855Z,1010.09
2016-07-31T03:00:51.882Z,1010.1
2016-07-31T03:01:51.908Z,1010.07
2016-07-31T03:02:51.934Z,1010.1
2016-07-31T03:03:51.960Z,1010.07
2016-07-31T03:04:51.986Z,1010.06
2016-07-31T03:05:52.012Z,1010.07
2016-07-31T03:06:52.038Z,1010.09
2016-07-31T03:07:52.064Z,1010.08
2016-07-31T03:08:52.089Z,1010.06
2016-07-31T03:09:52.116Z,1010.11
2016-07-31T03:10:52.142Z,1010.08
2016-07-31T03:11:52.168Z,1010.09
2016-07-31T03:12:52.194Z,1010.11
2016-07-31T03:13:52.219Z,1010.09
2016-07-31T03:14:52.245Z,1010.06
2016-07-31T03:15:52.273Z,1010.1
2016-07-31T03:16:52.304Z,1010.13
2016-07-31T03:17:52.323Z,1010.14
2016-07-31T03:18:52.350Z,1010.15
2016-07-31T03:19:52.381Z,1010.16
2016-07-31T03:20:52.400Z,1010.11
2016-07-31T03:21:52.427Z,1010.11
2016-07-31T03:22:52.453Z,1010.14
2016-07-31T03:23:52.482Z,1010.11
2016-07-31T03:24:52.504Z,1010.11
2016-07-31T03:25:52.530Z,1010.11
2016-07-31T03:26:52.557Z,1010.15
2016-07-31T03:27:52.582Z,1010.15
2016-07-31T03:28:52.607Z,1010.18
2016-07-31T03:29:52.634Z,1010.17
2016-07-31T03:30:52.659Z,1010.13
2016-07-31T03:31:52.688Z,1010.17
2016-07-31T03:32:52.711Z,1010.19
2016-07-31T03:33:52.737Z,1010.22
2016-07-31T03:34:52.763Z,1010.22
2016-07-31T03:35:52.788Z,1010.25
2016-07-31T03:36:52.815Z,1010.25
2016-07-31T03:37:52.841Z,1010.25
2016-07-31T03:38:52.870Z,1010.27
2016-07-31T03:39:52.891Z,1010.24
2016-07-31T03:40:52.918Z,1010.23
2016-07-31T03:41:52.945Z,1010.27
2016-07-31T03:42:52.969Z,1010.29
2016-07-31T03:43:52.995Z,1010.33
2016-07-31T03:44:53.022Z,1010.28
2016-07-31T03:45:53.048Z,1010.29
2016-07-31T03:46:53.074Z,1010.28
2016-07-31T03:47:53.099Z,1010.29
2016-07-31T03:48:53.125Z,1010.23
2016-07-31T03:49:53.152Z,1010.24
2016-07-31T03:50:53.177Z,1010.23
2016-07-31T03:51:53.202Z,1010.23
2016-07-31T03:52:53.229Z,1010.28
2016-07-31T03:53:53.255Z,1010.3
2016-07-31T03:54:53.280Z,1010.27
2016-07-31T03:55:53.307Z,1010.26
2016-07-31T03:56:53.333Z,1010.32
2016-07-31T03:57:53.357Z,1010.31
2016-07-31T03:58:53.384Z,1010.31
2016-07-31T03:59:53.410Z,1010.32
2016-07-31T04:00:53.436Z,1010.36
2016-07-31T04:01:53.463Z,1010.35
2016-07-31T04:02:53.487Z,1010.35
2016-07-31T04:03:53.514Z,1010.38
2016-07-31T04:04:53.539Z,1010.34
2016-07-31T04:05:53.565Z,1010.39
2016-07-31T04:06:53.592Z,1010.39
2016-07-31T04:07:53.618Z,1010.38
2016-07-31T04:08:53.643Z,1010.38
2016-07-31T04:09:53.669Z,1010.38
2016-07-31T04:10:53.695Z,1010.37
2016-07-31T04:11:53.722Z,1010.39
2016-07-31T04:12:53.747Z,1010.38
2016-07-31T04:13:53.773Z,1010.42
2016-07-31T04:14:53.799Z,1010.42
2016-07-31T04:15:53.825Z,1010.41
2016-07-31T04:16:53.849Z,1010.41
2016-07-31T04:17:53.876Z,1010.4
2016-07-31T04:18:53.902Z,1010.43
2016-07-31T04:19:53.927Z,1010.39
2016-07-31T04:20:53.954Z,1010.45
2016-07-31T04:21:53.980Z,1010.44
2016-07-31T04:22:54.006Z,1010.41
2016-07-31T04:23:54.031Z,1010.4
2016-07-31T04:24:54.056Z,1010.46
2016-07-31T04:25:54.083Z,1010.45
2016-07-31T04:26:54.108Z,1010.43
2016-07-31T04:27:54.134Z,1010.42
2016-07-31T04:28:54.162Z,1010.44
2016-07-31T04:29:54.187Z,1010.45
2016-07-31T04:30:54.212Z,1010.44
2016-07-31T04:31:54.238Z,1010.47
2016-07-31T04:32:54.264Z,1010.48
2016-07-31T04:33:54.290Z,1010.49
2016-07-31T04:34:54.315Z,1010.49
2016-07-31T04:35:54.341Z,1010.47
2016-07-31T04:36:54.368Z,1010.46
2016-07-31T04:37:54.392Z,1010.47
2016-07-31T04:38:54.419Z,1010.46
2016-07-31T04:39:54.451Z,1010.51
2016-07-31T04:40:54.471Z,1010.49
2016-07-31T04:41:54.496Z,1010.53
2016-07-31T04:42:54.522Z,1010.55
2016-07-31T04:44:54.574Z,1010.52
2016-07-31T04:45:54.600Z,1010.55
2016-07-31T04:46:54.626Z,1010.55
2016-07-31T04:47:54.654Z,1010.55
2016-07-31T04:48:54.677Z,1010.55
2016-07-31T04:49:54.704Z,1010.56
2016-07-31T04:50:54.730Z,1010.57
2016-07-31T04:51:54.757Z,1010.56
2016-07-31T04:52:54.781Z,1010.59
2016-07-31T04:53:54.807Z,1010.55
2016-07-31T04:54:54.833Z,1010.56
2016-07-31T04:55:54.858Z,1010.59
2016-07-31T04:56:54.885Z,1010.56
2016-07-31T04:57:54.910Z,1010.56
2016-07-31T04:59:54.964Z,1010.57
2016-07-31T05:00:54.988Z,1010.61
2016-07-31T05:01:55.014Z,1010.62
2016-07-31T05:02:55.041Z,1010.59
2016-07-31T05:03:55.067Z,1010.61
2016-07-31T05:04:55.091Z,1010.6
2016-07-31T05:05:55.117Z,1010.62
2016-07-31T05:06:55.142Z,1010.67
2016-07-31T05:07:55.168Z,1010.68
2016-07-31T05:08:55.194Z,1010.67
2016-07-31T05:09:55.221Z,1010.66
2016-07-31T05:10:55.246Z,1010.67
2016-07-31T05:11:55.272Z,1010.67
2016-07-31T05:12:55.299Z,1010.69
2016-07-31T05:14:55.350Z,1010.74
2016-07-31T05:15:55.376Z,1010.72
2016-07-31T05:16:55.401Z,1010.72
2016-07-31T05:17:55.427Z,1010.72
2016-07-31T05:18:55.453Z,1010.69
2016-07-31T05:19:55.479Z,1010.72
2016-07-31T05:20:55.505Z,1010.7
2016-07-31T05:21:55.531Z,1010.75
2016-07-31T05:22:55.556Z,1010.71
2016-07-31T05:23:55.583Z,1010.73
2016-07-31T05:24:55.609Z,1010.73
2016-07-31T05:25:55.633Z,1010.73
2016-07-31T05:26:55.660Z,1010.73
2016-07-31T05:27:55.687Z,1010.77
2016-07-31T05:28:55.720Z,1010.73
2016-07-31T05:29:55.743Z,1010.71
2016-07-31T05:30:55.763Z,1010.7
2016-07-31T05:31:55.793Z,1010.69
2016-07-31T05:32:55.815Z,1010.7
2016-07-31T05:33:55.840Z,1010.7
2016-07-31T05:34:55.867Z,1010.69
2016-07-31T05:35:55.894Z,1010.69
2016-07-31T05:36:55.918Z,1010.73
2016-07-31T05:37:55.954Z,1010.71
2016-07-31T05:38:55.971Z,1010.7
2016-07-31T05:39:56.003Z,1010.76
2016-07-31T05:40:56.023Z,1010.73
2016-07-31T05:41:56.049Z,1010.75
2016-07-31T05:42:56.076Z,1010.77
2016-07-31T05:43:56.101Z,1010.73
2016-07-31T05:44:56.127Z,1010.71
2016-07-31T05:45:56.153Z,1010.73
2016-07-31T05:46:56.179Z,1010.71
2016-07-31T05:47:56.204Z,1010.73
2016-07-31T05:48:56.230Z,1010.79
2016-07-31T05:49:56.257Z,1010.77
2016-07-31T05:50:56.281Z,1010.78
2016-07-31T05:51:56.307Z,1010.79
2016-07-31T05:52:56.334Z,1010.8
2016-07-31T05:53:56.360Z,1010.78
2016-07-31T05:54:56.386Z,1010.8
2016-07-31T05:55:56.414Z,1010.82
2016-07-31T05:56:56.438Z,1010.84
2016-07-31T05:57:56.464Z,1010.82
2016-07-31T05:58:56.490Z,1010.83
2016-07-31T05:59:56.523Z,1010.8
2016-07-31T06:00:56.542Z,1010.81
2016-07-31T06:01:56.569Z,1010.8
2016-07-31T06:02:56.594Z,1010.77
2016-07-31T06:03:56.620Z,1010.84
2016-07-31T06:04:56.647Z,1010.8
2016-07-31T06:05:56.678Z,1010.8
2016-07-31T06:06:56.698Z,1010.82
2016-07-31T06:07:56.725Z,1010.81
2016-07-31T06:08:56.750Z,1010.84
2016-07-31T06:09:56.776Z,1010.81
2016-07-31T06:10:56.802Z,1010.84
2016-07-31T06:11:56.828Z,1010.81
2016-07-31T06:12:56.854Z,1010.79
2016-07-31T06:13:56.881Z,1010.81
2016-07-31T06:14:56.906Z,1010.76
2016-07-31T06:15:56.934Z,1010.78
2016-07-31T06:16:56.958Z,1010.78
2016-07-31T06:17:56.985Z,1010.78
2016-07-31T06:18:57.011Z,1010.78
2016-07-31T06:19:57.038Z,1010.81
2016-07-31T06:20:57.064Z,1010.8
2016-07-31T06:21:57.090Z,1010.82
2016-07-31T06:22:57.116Z,1010.85
2016-07-31T06:23:57.142Z,1010.84
2016-07-31T06:24:57.167Z,1010.83
2016-07-31T06:25:57.195Z,1010.84
2016-07-31T06:26:57.222Z,1010.86
2016-07-31T06:27:57.247Z,1010.87
2016-07-31T06:28:57.273Z,1010.9
2016-07-31T06:29:57.299Z,1010.89
2016-07-31T06:30:57.328Z,1010.89
2016-07-31T06:31:57.351Z,1010.9
2016-07-31T06:32:57.384Z,1010.91
2016-07-31T06:33:57.404Z,1010.85
2016-07-31T06:34:57.430Z,1010.9
2016-07-31T06:35:57.463Z,1010.89
2016-07-31T06:36:57.482Z,1010.9
2016-07-31T06:37:57.510Z,1010.93
2016-07-31T06:38:57.535Z,1010.94
2016-07-31T06:39:57.562Z,1010.95
2016-07-31T06:40:57.588Z,1010.94
2016-07-31T06:41:57.614Z,1010.95
2016-07-31T06:42:57.640Z,1010.91
2016-07-31T06:43:57.673Z,1010.94
2016-07-31T06:44:57.693Z,1010.98
2016-07-31T06:45:57.719Z,1010.94
2016-07-31T06:46:57.746Z,1010.95
2016-07-31T06:47:57.772Z,1010.93
2016-07-31T06:48:57.799Z,1010.94
2016-07-31T06:49:57.825Z,1010.98
2016-07-31T06:50:57.851Z,1010.99
2016-07-31T06:51:57.879Z,1010.98
2016-07-31T06:52:57.904Z,1011.02
2016-07-31T06:53:57.930Z,1011.06
2016-07-31T06:54:57.957Z,1011.03
2016-07-31T06:55:57.984Z,1011.03
2016-07-31T06:56:58.009Z,1011.07
2016-07-31T06:57:58.036Z,1011.08
2016-07-31T06:58:58.062Z,1011.09
2016-07-31T06:59:58.089Z,1011.07
2016-07-31T07:00:58.116Z,1011.1
2016-07-31T07:01:58.142Z,1011.08
2016-07-31T07:02:58.169Z,1011.14
2016-07-31T07:03:58.194Z,1011.11
2016-07-31T07:04:58.222Z,1011.11
2016-07-31T07:05:58.248Z,1011.13
2016-07-31T07:06:58.275Z,1011.14
2016-07-31T07:07:58.301Z,1011.15
2016-07-31T07:08:58.328Z,1011.18
2016-07-31T07:09:58.355Z,1011.15
2016-07-31T07:10:58.381Z,1011.2
2016-07-31T07:11:58.407Z,1011.14
2016-07-31T07:12:58.434Z,1011.15
2016-07-31T07:13:58.461Z,1011.18
2016-07-31T07:14:58.488Z,1011.2
2016-07-31T07:15:58.514Z,1011.21
2016-07-31T07:16:58.541Z,1011.19
2016-07-31T07:17:58.567Z,1011.21
2016-07-31T07:18:58.593Z,1011.26
2016-07-31T07:19:58.625Z,1011.29
2016-07-31T07:20:58.648Z,1011.26
2016-07-31T07:21:58.674Z,1011.24
2016-07-31T07:22:58.701Z,1011.22
2016-07-31T07:23:58.728Z,1011.24
2016-07-31T07:24:58.755Z,1011.24
2016-07-31T07:25:58.782Z,1011.31
2016-07-31T07:26:58.809Z,1011.27
2016-07-31T07:27:58.835Z,1011.28
2016-07-31T07:28:58.863Z,1011.22
2016-07-31T07:29:58.890Z,1011.28
2016-07-31T07:30:58.916Z,1011.23
2016-07-31T07:31:58.944Z,1011.29
2016-07-31T07:32:58.970Z,1011.31
2016-07-31T07:33:58.996Z,1011.3
2016-07-31T07:34:59.024Z,1011.28
2016-07-31T07:35:59.052Z,1011.29
2016-07-31T07:36:59.078Z,1011.28
2016-07-31T07:37:59.106Z,1011.32
2016-07-31T07:38:59.133Z,1011.3
2016-07-31T07:39:59.160Z,1011.35
2016-07-31T07:40:59.196Z,1011.36
2016-07-31T07:41:59.213Z,1011.37
2016-07-31T07:42:59.241Z,1011.38
2016-07-31T07:43:59.268Z,1011.34
2016-07-31T07:44:59.294Z,1011.42
2016-07-31T07:45:59.322Z,1011.41
2016-07-31T07:46:59.348Z,1011.42
2016-07-31T07:47:59.375Z,1011.41
2016-07-31T07:48:59.403Z,1011.44
2016-07-31T07:49:59.430Z,1011.43
2016-07-31T07:50:59.456Z,1011.42
2016-07-31T07:51:59.483Z,1011.45
2016-07-31T07:52:59.511Z,1011.48
2016-07-31T07:53:59.538Z,1011.5
2016-07-31T07:54:59.565Z,1011.48
2016-07-31T07:55:59.592Z,1011.53
2016-07-31T07:56:59.619Z,1011.5
2016-07-31T07:57:59.646Z,1011.49
2016-07-31T07:58:59.673Z,1011.51
2016-07-31T07:59:59.700Z,1011.55
2016-07-31T08:00:59.728Z,1011.58
2016-07-31T08:01:59.755Z,1011.59
2016-07-31T08:02:59.780Z,1011.58
2016-07-31T08:03:59.808Z,1011.58
2016-07-31T08:04:59.836Z,1011.58
2016-07-31T08:05:59.861Z,1011.61
2016-07-31T08:06:59.889Z,1011.62
2016-07-31T08:07:59.916Z,1011.65
2016-07-31T08:08:59.943Z,1011.67
2016-07-31T08:09:59.969Z,1011.65
2016-07-31T08:10:59.999Z,1011.67
2016-07-31T08:12:00.023Z,1011.7
2016-07-31T08:13:00.051Z,1011.66
2016-07-31T08:14:00.077Z,1011.68
2016-07-31T08:15:00.105Z,1011.71
2016-07-31T08:16:00.140Z,1011.71
2016-07-31T08:17:00.158Z,1011.67
2016-07-31T08:18:00.185Z,1011.67
2016-07-31T08:19:00.212Z,1011.67
2016-07-31T08:20:00.247Z,1011.67
2016-07-31T08:21:00.265Z,1011.68
2016-07-31T08:22:00.293Z,1011.61
2016-07-31T08:23:00.320Z,1011.67
2016-07-31T08:24:00.347Z,1011.61
2016-07-31T08:25:00.373Z,1011.61
2016-07-31T08:26:00.407Z,1011.58
2016-07-31T08:27:00.428Z,1011.55
2016-07-31T08:28:00.453Z,1011.57
2016-07-31T08:29:00.481Z,1011.55
2016-07-31T08:30:00.515Z,1011.58
2016-07-31T08:31:00.536Z,1011.53
2016-07-31T08:32:00.561Z,1011.51
2016-07-31T08:33:00.588Z,1011.52
2016-07-31T08:34:00.616Z,1011.53
2016-07-31T08:35:00.643Z,1011.51
2016-07-31T08:36:00.669Z,1011.48
2016-07-31T08:37:00.696Z,1011.44
2016-07-31T08:38:00.726Z,1011.48
2016-07-31T08:39:00.750Z,1011.49
2016-07-31T08:40:00.778Z,1011.47
2016-07-31T08:41:00.806Z,1011.52
2016-07-31T08:42:00.832Z,1011.58
2016-07-31T08:43:00.859Z,1011.55
2016-07-31T08:44:00.886Z,1011.55
2016-07-31T08:45:00.916Z,1011.48
2016-07-31T08:46:00.940Z,1011.51
2016-07-31T08:47:00.967Z,1011.53
2016-07-31T08:48:00.995Z,1011.54
2016-07-31T08:49:01.022Z,1011.56
2016-07-31T08:50:01.049Z,1011.63
2016-07-31T08:51:01.076Z,1011.62
2016-07-31T08:52:01.104Z,1011.65
2016-07-31T08:53:01.132Z,1011.68
2016-07-31T08:54:01.159Z,1011.63
2016-07-31T08:55:01.194Z,1011.61
2016-07-31T08:56:01.215Z,1011.62
2016-07-31T08:57:01.242Z,1011.57
2016-07-31T08:58:01.269Z,1011.59
2016-07-31T08:59:01.297Z,1011.61
2016-07-31T09:00:01.324Z,1011.6
2016-07-31T09:01:01.352Z,1011.58
2016-07-31T09:02:01.379Z,1011.62
2016-07-31T09:03:01.408Z,1011.56
2016-07-31T09:04:01.440Z,1011.58
2016-07-31T09:05:01.462Z,1011.6
2016-07-31T09:06:01.491Z,1011.65
2016-07-31T09:07:01.518Z,1011.66
2016-07-31T09:08:01.547Z,1011.63
2016-07-31T09:09:01.574Z,1011.61
2016-07-31T09:10:01.602Z,1011.64
2016-07-31T09:11:01.629Z,1011.65
2016-07-31T09:12:01.658Z,1011.68
2016-07-31T09:13:01.684Z,1011.67
2016-07-31T09:14:01.713Z,1011.68
2016-07-31T09:15:01.740Z,1011.66
2016-07-31T09:16:01.767Z,1011.67
2016-07-31T09:17:01.795Z,1011.68
2016-07-31T09:18:01.824Z,1011.72
2016-07-31T09:19:01.850Z,1011.75
2016-07-31T09:20:01.878Z,1011.79
2016-07-31T09:21:01.905Z,1011.79
2016-07-31T09:22:01.933Z,1011.79
2016-07-31T09:23:01.960Z,1011.81
2016-07-31T09:24:01.998Z,1011.78
2016-07-31T09:25:02.015Z,1011.81
2016-07-31T09:26:02.043Z,1011.77
2016-07-31T09:27:02.071Z,1011.8
2016-07-31T09:28:02.099Z,1011.77
2016-07-31T09:29:02.125Z,1011.78
2016-07-31T09:30:02.154Z,1011.82
2016-07-31T09:31:02.181Z,1011.8
2016-07-31T09:32:02.209Z,1011.83
2016-07-31T09:33:02.237Z,1011.83
2016-07-31T09:34:02.264Z,1011.83
2016-07-31T09:35:02.291Z,1011.9
2016-07-31T09:36:02.319Z,1011.87
2016-07-31T09:37:02.345Z,1011.86
2016-07-31T09:38:02.374Z,1011.93
2016-07-31T09:39:02.400Z,1011.91
2016-07-31T09:40:02.428Z,1011.96
2016-07-31T09:41:02.454Z,1012
2016-07-31T09:42:02.483Z,1012.05
2016-07-31T09:43:02.514Z,1012.01
2016-07-31T09:44:02.540Z,1012.04
2016-07-31T09:46:02.590Z,1012.1
2016-07-31T09:47:02.618Z,1012.06
2016-07-31T09:48:02.646Z,1012.1
2016-07-31T09:49:02.672Z,1012.11
2016-07-31T09:50:02.700Z,1012.13
2016-07-31T09:51:02.726Z,1012.17
2016-07-31T09:52:02.752Z,1012.17
2016-07-31T09:53:02.780Z,1012.2
2016-07-31T09:54:02.807Z,1012.19
2016-07-31T09:55:02.835Z,1012.18
2016-07-31T09:56:02.862Z,1012.2
2016-07-31T09:57:02.889Z,1012.19
2016-07-31T09:58:02.916Z,1012.2
2016-07-31T09:59:02.945Z,1012.2
2016-07-31T10:01:02.999Z,1012.23
2016-07-31T10:02:03.026Z,1012.2
2016-07-31T10:03:03.052Z,1012.21
2016-07-31T10:04:03.079Z,1012.2
2016-07-31T10:05:03.107Z,1012.24
2016-07-31T10:06:03.135Z,1012.22
2016-07-31T10:07:03.163Z,1012.25
2016-07-31T10:08:03.188Z,1012.25
2016-07-31T10:09:03.216Z,1012.23
2016-07-31T10:10:03.244Z,1012.23
2016-07-31T10:11:03.269Z,1012.25
2016-07-31T10:12:03.297Z,1012.26
2016-07-31T10:13:03.325Z,1012.29
2016-07-31T10:14:03.351Z,1012.29
2016-07-31T10:15:03.383Z,1012.29
2016-07-31T10:16:03.406Z,1012.33
2016-07-31T10:17:03.433Z,1012.34
2016-07-31T10:18:03.460Z,1012.36
2016-07-31T10:19:03.488Z,1012.36
2016-07-31T10:20:03.515Z,1012.35
2016-07-31T10:21:03.543Z,1012.35
2016-07-31T10:22:03.570Z,1012.32
2016-07-31T10:23:03.598Z,1012.33
2016-07-31T10:24:03.625Z,1012.35
2016-07-31T10:25:03.652Z,1012.33
2016-07-31T10:26:03.680Z,1012.36
2016-07-31T10:27:03.711Z,1012.37
2016-07-31T10:28:03.737Z,1012.31
2016-07-31T10:29:03.766Z,1012.31
2016-07-31T10:30:03.791Z,1012.33
2016-07-31T10:31:03.818Z,1012.3
2016-07-31T10:32:03.846Z,1012.34
2016-07-31T10:33:03.873Z,1012.33
2016-07-31T10:34:03.902Z,1012.32
2016-07-31T10:35:03.929Z,1012.3
2016-07-31T10:36:03.963Z,1012.3
2016-07-31T10:37:03.985Z,1012.29
2016-07-31T10:38:04.012Z,1012.3
2016-07-31T10:39:04.041Z,1012.23
2016-07-31T10:40:04.068Z,1012.24
2016-07-31T10:41:04.095Z,1012.3
2016-07-31T10:42:04.123Z,1012.3
2016-07-31T10:43:04.151Z,1012.32
2016-07-31T10:44:04.178Z,1012.31
2016-07-31T10:45:04.206Z,1012.31
2016-07-31T10:46:04.235Z,1012.28
2016-07-31T10:47:04.261Z,1012.33
2016-07-31T10:48:04.289Z,1012.29
2016-07-31T10:49:04.316Z,1012.34
2016-07-31T10:50:04.349Z,1012.29
2016-07-31T10:51:04.372Z,1012.33
2016-07-31T10:52:04.401Z,1012.34
2016-07-31T10:53:04.428Z,1012.29
2016-07-31T10:54:04.457Z,1012.31
2016-07-31T10:55:04.484Z,1012.25
2016-07-31T10:56:04.512Z,1012.24
2016-07-31T10:57:04.540Z,1012.25
2016-07-31T10:58:04.568Z,1012.24
2016-07-31T10:59:04.596Z,1012.23
2016-07-31T11:00:04.624Z,1012.2
2016-07-31T11:01:04.652Z,1012.19
2016-07-31T11:02:04.680Z,1012.19
2016-07-31T11:03:04.707Z,1012.21
2016-07-31T11:04:04.736Z,1012.23
2016-07-31T11:05:04.764Z,1012.22
2016-07-31T11:06:04.793Z,1012.22
2016-07-31T11:07:04.820Z,1012.24
2016-07-31T11:08:04.849Z,1012.24
2016-07-31T11:09:04.877Z,1012.18
2016-07-31T11:10:04.918Z,1012.24
2016-07-31T11:11:04.932Z,1012.24
2016-07-31T11:12:04.967Z,1012.27
2016-07-31T11:13:04.988Z,1012.27
2016-07-31T11:14:05.017Z,1012.23
2016-07-31T11:15:05.045Z,1012.22
2016-07-31T11:16:05.073Z,1012.25
2016-07-31T11:17:05.100Z,1012.22
2016-07-31T11:18:05.128Z,1012.27
2016-07-31T11:19:05.156Z,1012.26
2016-07-31T11:20:05.184Z,1012.25
2016-07-31T11:21:05.213Z,1012.29
2016-07-31T11:22:05.245Z,1012.3
2016-07-31T11:23:05.269Z,1012.29
2016-07-31T11:24:05.296Z,1012.27
2016-07-31T11:25:05.324Z,1012.28
2016-07-31T11:26:05.353Z,1012.24
2016-07-31T11:27:05.381Z,1012.26
2016-07-31T11:28:05.408Z,1012.24
2016-07-31T11:29:05.437Z,1012.25
2016-07-31T11:30:05.466Z,1012.27
2016-07-31T11:31:05.493Z,1012.31
2016-07-31T11:32:05.529Z,1012.37
2016-07-31T11:33:05.550Z,1012.36
2016-07-31T11:34:05.577Z,1012.36
2016-07-31T11:35:05.605Z,1012.31
2016-07-31T11:36:05.633Z,1012.37
2016-07-31T11:37:05.661Z,1012.35
2016-07-31T11:38:05.689Z,1012.34
2016-07-31T11:39:05.718Z,1012.29
2016-07-31T11:40:05.745Z,1012.33
2016-07-31T11:41:05.774Z,1012.32
2016-07-31T11:42:05.802Z,1012.38
2016-07-31T11:43:05.830Z,1012.39
2016-07-31T11:44:05.858Z,1012.41
2016-07-31T11:45:05.886Z,1012.39
2016-07-31T11:46:05.913Z,1012.41
2016-07-31T11:47:05.942Z,1012.39
2016-07-31T11:48:05.971Z,1012.37
2016-07-31T11:49:05.998Z,1012.32
2016-07-31T11:50:06.027Z,1012.33
2016-07-31T11:51:06.054Z,1012.34
2016-07-31T11:52:06.084Z,1012.32
2016-07-31T11:53:06.111Z,1012.31
2016-07-31T11:54:06.139Z,1012.33
2016-07-31T11:55:06.168Z,1012.29
2016-07-31T11:56:06.204Z,1012.3
2016-07-31T11:57:06.223Z,1012.28
2016-07-31T11:58:06.251Z,1012.33
2016-07-31T11:59:06.280Z,1012.3
2016-07-31T12:00:06.308Z,1012.32
2016-07-31T12:01:06.335Z,1012.29
2016-07-31T12:02:06.366Z,1012.33
2016-07-31T12:03:06.393Z,1012.25
2016-07-31T12:04:06.420Z,1012.27
2016-07-31T12:05:06.449Z,1012.21
2016-07-31T12:06:06.477Z,1012.31
2016-07-31T12:07:06.504Z,1012.25
2016-07-31T12:08:06.542Z,1012.21
2016-07-31T12:09:06.561Z,1012.28
2016-07-31T12:10:06.589Z,1012.28
2016-07-31T12:11:06.617Z,1012.3
2016-07-31T12:12:06.645Z,1012.24
2016-07-31T12:13:06.673Z,1012.22
2016-07-31T12:14:06.705Z,1012.26
2016-07-31T12:15:06.730Z,1012.23